Flight Track Log - Related Links

Times and Time Zones

All times are in EDT time to prevent confusion due to time zone crossing. See the CCA1681 flight status page for this flight to view local times or setup timezone preferences in your user account.

Time Position Orientation Groundspeed Altitude Reporting Facility
EDT Latitude Longitude Course Direction KTS MPH feet Rate Location/Type
Wed 06:19:00 AM 40.2680 117.0286 61° Northeast  Level Estimated
Wed 06:20:00 AM 40.3147 117.1400 61° Northeast  Level Estimated
Wed 06:21:00 AM 40.3613 117.2516 61° Northeast  Level Estimated
Wed 06:22:00 AM 40.4078 117.3633 61° Northeast  Level Estimated
Wed 06:23:00 AM 40.4541 117.4751 61° Northeast  Level Estimated
Wed 06:24:00 AM 40.5004 117.5872 61° Northeast  Level Estimated
Wed 06:25:00 AM 40.5466 117.6993 62° Northeast  Level Estimated
Wed 06:26:00 AM 40.5926 117.8116 62° Northeast  Level Estimated
Wed 06:27:00 AM 40.6386 117.9241 62° Northeast  Level Estimated
Wed 06:28:00 AM 40.6844 118.0368 62° Northeast  Level Estimated
Wed 06:29:00 AM 40.7301 118.1495 62° Northeast  Level Estimated
Wed 06:30:00 AM 40.7758 118.2625 62° Northeast  Level Estimated
Wed 06:31:00 AM 40.8213 118.3756 62° Northeast  Level Estimated
Wed 06:32:00 AM 40.8667 118.4888 62° Northeast  Level Estimated
Wed 06:33:00 AM 40.9119 118.6022 62° Northeast  Level Estimated
Wed 06:34:00 AM 40.9571 118.7158 62° Northeast  Level Estimated
Wed 06:35:00 AM 41.0022 118.8295 62° Northeast  Level Estimated
Wed 06:36:00 AM 41.0471 118.9434 62° Northeast  Level Estimated
Wed 06:37:00 AM 41.0920 119.0574 62° Northeast  Level Estimated
Wed 06:38:00 AM 41.1367 119.1716 62° Northeast  Level Estimated
Wed 06:39:00 AM 41.1813 119.2860 63° Northeast  Level Estimated
Wed 06:40:00 AM 41.2258 119.4005 63° Northeast  Level Estimated
Wed 06:41:00 AM 41.2702 119.5151 63° Northeast  Level Estimated
Wed 06:42:00 AM 41.3145 119.6299 63° Northeast  Level Estimated
Wed 06:43:00 AM 41.3586 119.7449 63° Northeast  Level Estimated
Wed 06:44:00 AM 41.4027 119.8600 63° Northeast  Level Estimated
Wed 06:45:00 AM 41.4466 119.9753 63° Northeast  Level Estimated
Wed 06:46:00 AM 41.4904 120.0907 63° Northeast  Level Estimated
Wed 06:47:00 AM 41.5341 120.2063 63° Northeast  Level Estimated
Wed 06:48:00 AM 41.5777 120.3221 63° Northeast  Level Estimated
Wed 06:49:00 AM 41.6212 120.4380 63° Northeast  Level Estimated
Wed 06:50:00 AM 41.6645 120.5540 63° Northeast  Level Estimated
Wed 06:51:00 AM 41.7077 120.6702 63° Northeast  Level Estimated
Wed 06:52:00 AM 41.7508 120.7866 64° Northeast  Level Estimated
Wed 06:53:00 AM 41.7938 120.9031 64° Northeast  Level Estimated
Wed 06:54:00 AM 41.8367 121.0198 64° Northeast  Level Estimated
Wed 06:55:00 AM 41.8795 121.1366 64° Northeast  Level Estimated
Wed 06:56:00 AM 41.9221 121.2536 64° Northeast  Level Estimated
Wed 06:57:00 AM 41.9646 121.3708 64° Northeast  Level Estimated
Wed 06:58:00 AM 42.0070 121.4881 64° Northeast  Level Estimated
Wed 06:59:00 AM 42.0493 121.6056 64° Northeast  Level Estimated
Wed 07:00:00 AM 42.0915 121.7232 64° Northeast  Level Estimated
Wed 07:01:00 AM 42.1335 121.8409 64° Northeast  Level Estimated
Wed 07:02:00 AM 42.1755 121.9589 64° Northeast  Level Estimated
Wed 07:03:00 AM 42.2173 122.0770 64° Northeast  Level Estimated
Wed 07:04:00 AM 42.2589 122.1952 64° Northeast  Level Estimated
Wed 07:05:00 AM 42.3005 122.3136 65° Northeast  Level Estimated
Wed 07:06:00 AM 42.3419 122.4322 65° Northeast  Level Estimated
Wed 07:07:00 AM 42.3833 122.5509 65° Northeast  Level Estimated
Wed 07:08:00 AM 42.4245 122.6697 65° Northeast  Level Estimated
Wed 07:09:00 AM 42.4655 122.7888 65° Northeast  Level Estimated
Wed 07:10:00 AM 42.5065 122.9080 65° Northeast  Level Estimated
Wed 07:11:00 AM 42.5473 123.0273 65° Northeast  Level Estimated
Wed 07:12:00 AM 42.5880 123.1468 65° Northeast  Level Estimated
Wed 07:13:00 AM 42.6286 123.2664 65° Northeast  Level Estimated
Wed 07:14:00 AM 42.6690 123.3862 65° Northeast  Level Estimated
Wed 07:15:00 AM 42.7094 123.5062 65° Northeast  Level Estimated
Wed 07:16:00 AM 42.7495 123.6263 65° Northeast  Level Estimated
Wed 07:17:00 AM 42.7896 123.7466 66° East  Level Estimated
Wed 07:18:00 AM 42.8296 123.8670 66° East  Level Estimated
Wed 07:19:00 AM 42.8694 123.9876 66° East  Level Estimated
Wed 07:20:00 AM 42.9091 124.1083 66° East  Level Estimated
Wed 07:21:00 AM 42.9487 124.2292 66° East  Level Estimated
Wed 07:22:00 AM 42.9881 124.3503 66° East  Level Estimated
Wed 07:23:00 AM 43.0274 124.4715 66° East  Level Estimated
Wed 07:24:00 AM 43.0666 124.5928 66° East  Level Estimated
Wed 07:25:00 AM 43.1057 124.7143 66° East  Level Estimated
Wed 07:26:00 AM 43.1446 124.8360 66° East  Level Estimated
Wed 07:27:00 AM 43.1834 124.9578 66° East  Level Estimated
Wed 07:28:00 AM 43.2220 125.0798 66° East  Level Estimated
Wed 07:29:00 AM 43.2606 125.2020 67° East  Level Estimated
Wed 07:30:00 AM 43.2990 125.3242 67° East  Level Estimated
Wed 07:31:00 AM 43.3373 125.4467 67° East  Level Estimated
Wed 07:32:00 AM 43.3754 125.5693 67° East  Level Estimated
Wed 07:33:00 AM 43.4134 125.6920 67° East  Level Estimated
Wed 07:34:00 AM 43.4513 125.8149 67° East  Level Estimated
Wed 07:35:00 AM 43.4891 125.9380 67° East  Level Estimated
Wed 07:36:00 AM 43.5267 126.0612 67° East  Level Estimated
Wed 07:37:00 AM 43.5642 126.1846 67° East  Level Estimated
Wed 07:38:00 AM 43.6015 126.3081 67° East  Level Estimated
Wed 07:39:00 AM 43.6388 126.4318 67° East  Level Estimated
Wed 07:40:00 AM 43.6758 126.5556 67° East  Level Estimated
Wed 07:41:00 AM 43.7128 126.6796 68° East  Level Estimated
Wed 07:42:00 AM 43.7496 126.8037 68° East  Level Estimated
Wed 07:43:00 AM 43.7863 126.9280 68° East  Level Estimated
Wed 07:44:00 AM 43.8229 127.0524 68° East  Level Estimated
Wed 07:45:00 AM 43.8593 127.1770 68° East  Level Estimated
Wed 07:46:00 AM 43.8956 127.3017 68° East  Level Estimated
Wed 07:47:00 AM 43.9317 127.4266 68° East  Level Estimated
Wed 07:48:00 AM 43.9677 127.5517 68° East  Level Estimated
Wed 07:49:00 AM 44.0036 127.6769 68° East  Level Estimated
Wed 07:50:00 AM 44.0393 127.8022 68° East  Level Estimated
Wed 07:51:00 AM 44.0749 127.9277 68° East  Level Estimated
Wed 07:52:00 AM 44.1104 128.0533 69° East  Level Estimated
Wed 07:53:00 AM 44.1457 128.1792 69° East  Level Estimated
Wed 07:54:00 AM 44.1809 128.3051 69° East  Level Estimated
Wed 07:55:00 AM 44.2160 128.4312 69° East  Level Estimated
Wed 07:56:00 AM 44.2509 128.5574 69° East  Level Estimated
Wed 07:57:00 AM 44.2856 128.6839 69° East  Level Estimated
Wed 07:58:00 AM 44.3203 128.8104 69° East  Level Estimated
Wed 07:59:00 AM 44.3548 128.9371 69° East  Level Estimated
Wed 08:00:00 AM 44.3891 129.0639 69° East  Level Estimated
Wed 08:01:00 AM 44.4233 129.1909 69° East  Level Estimated
Wed 08:02:00 AM 44.4574 129.3181 69° East  Level Estimated
Wed 08:03:00 AM 44.4913 129.4454 69° East  Level Estimated
Wed 08:04:00 AM 44.5241 129.5690 70° East  Level Estimated
Wed 08:05:00 AM 44.5241 129.5690 North  Level Estimated
Wed 08:06:00 AM 44.5241 129.5690 North  Level Estimated
Wed 08:07:00 AM 44.5241 129.5690 North  Level Estimated
Wed 08:08:00 AM 44.5241 129.5690 North  Level Estimated
Wed 08:09:00 AM 44.5241 129.5690 North  Level Estimated
Wed 08:10:00 AM 44.5241 129.5690 North  Level Estimated
Wed 08:11:00 AM 44.5241 129.5690 North  Level Estimated
Wed 08:12:00 AM 44.5241 129.5690 North  Level Estimated
Wed 08:13:00 AM 44.5241 129.5690 North  Level Estimated
Wed 08:14:00 AM 44.5241 129.5690 North  Level Estimated
Wed 08:15:00 AM 44.5241 129.5690 North  Level Estimated
Wed 08:16:00 AM 44.5241 129.5690 North  Level Estimated
Wed 08:17:00 AM 44.5241 129.5690 North  Level Estimated
Wed 08:18:00 AM 44.5241 129.5690 North  Level Estimated
Wed 08:19:00 AM 44.5241 129.5690 North  Level Estimated
Wed 08:20:00 AM 44.5241 129.5690 North  Level Estimated

Login

Don't have an account? Register now (free) for customized features, flight alerts, and more!